»·PEaware :: N915TB KLAS-KMRY

N915TB :: KLAS-KMRY

FLIGHT INFORMATION

Flight Status: Arrived
Operator: Privately registered:
United States
More flights under this callsign
Pilot: Jake M. (20491)
Aircraft: SOCATA TBM-900
(TBM9)
More flights by this aircraft type
Origin: KLAS McCarran Intl
United States
Destination: KMRY Monterey Peninsula
United States
More flights between these airports :: More routes between these airports
Route: SHEAD BIKKR Q158 NTELL PXN SNS
File this flight plan on PilotEdge
Remarks:
Altitude:
(Current/Filed)
28,000ft
Speed:
(Current/Filed)
300kts
Departed: 28-Apr-20 01:29 PM
Arrived: 28-Apr-20 02:48 PM
Distance/Time
Traveled:
325nm/1:19
Distance/Time
To Go:
Arrived

Flight Plot

Page will automatically refresh every two minutes.

Flight plan parsing failed; only flown route is shown


Map Options




Map Legend


Flown Route
Filed Route
Departure Airport
Arrival Airport
Navaid (VOR, NDB)
Fix

Horizontal Profiles

Position Reports

Time Latitude Longitude Heading Altitude Ground
Speed
28-Apr-20 13:12 36.092515 -115.163521 356 2120ft 0kts
28-Apr-20 13:13 36.092515 -115.163521 356 2120ft 0kts
28-Apr-20 13:14 36.092515 -115.163521 356 2120ft 0kts
28-Apr-20 13:15 36.092515 -115.163521 356 2120ft 0kts
28-Apr-20 13:16 36.092515 -115.163521 356 2120ft 0kts
28-Apr-20 13:17 36.092515 -115.163521 356 2120ft 0kts
28-Apr-20 13:18 36.092515 -115.163521 356 2120ft 0kts
28-Apr-20 13:19 36.092515 -115.163521 356 2120ft 0kts
28-Apr-20 13:20 36.092515 -115.163521 356 2120ft 0kts
28-Apr-20 13:20 36.092515 -115.163521 356 2120ft 0kts
28-Apr-20 13:22 36.092515 -115.163521 356 2120ft 0kts
28-Apr-20 13:23 36.092515 -115.163521 356 2120ft 0kts
28-Apr-20 13:23 36.092515 -115.163521 356 2120ft 0kts
28-Apr-20 13:24 36.092515 -115.163521 356 2120ft 0kts
28-Apr-20 13:26 36.092515 -115.163521 356 2120ft 0kts
28-Apr-20 13:27 36.094511 -115.161777 25 2110ft 18kts
28-Apr-20 13:27 36.099396 -115.158975 30 2092ft 24kts
28-Apr-20 13:28 36.096417 -115.158301 205 2095ft 75kts
28-Apr-20 13:30 36.059125 -115.177902 201 3587ft 136kts
28-Apr-20 13:30 36.027919 -115.192941 201 4829ft 159kts
28-Apr-20 13:31 35.986677 -115.212848 202 6829ft 158kts
28-Apr-20 13:32 35.945455 -115.232750 201 8909ft 160kts
28-Apr-20 13:33 35.904164 -115.252794 201 10839ft 162kts
28-Apr-20 13:34 35.861751 -115.273473 201 12701ft 164kts
28-Apr-20 13:35 35.818529 -115.294581 201 14414ft 170kts
28-Apr-20 13:36 35.797012 -115.342158 280 15123ft 223kts
28-Apr-20 13:37 35.809920 -115.426193 281 15075ft 264kts
28-Apr-20 13:38 35.823322 -115.510448 281 16727ft 224kts
28-Apr-20 13:39 35.834140 -115.578605 281 19045ft 182kts
28-Apr-20 13:40 35.842662 -115.632928 280 20931ft 160kts
28-Apr-20 13:41 35.852430 -115.694113 281 22312ft 192kts
28-Apr-20 13:42 35.862697 -115.759437 282 24033ft 195kts
28-Apr-20 13:43 35.873122 -115.826054 282 25559ft 199kts
28-Apr-20 13:44 35.883657 -115.893500 283 27162ft 202kts
28-Apr-20 13:45 35.895911 -115.963856 296 28201ft 232kts
28-Apr-20 13:46 35.945002 -116.027483 317 28184ft 276kts
28-Apr-20 13:47 36.003523 -116.094930 317 28178ft 295kts
28-Apr-20 13:48 36.064698 -116.165453 317 28174ft 304kts
28-Apr-20 13:49 36.127078 -116.237510 317 28171ft 308kts
28-Apr-20 13:50 36.189953 -116.310289 317 28173ft 310kts
28-Apr-20 13:51 36.253423 -116.383942 317 28174ft 313kts
28-Apr-20 13:52 36.316854 -116.457737 316 28173ft 315kts
28-Apr-20 13:53 36.380987 -116.532510 316 28174ft 315kts
28-Apr-20 13:54 36.445138 -116.607480 316 28174ft 316kts
28-Apr-20 13:55 36.509186 -116.682508 316 28170ft 316kts
28-Apr-20 13:56 36.566245 -116.764644 291 28165ft 316kts
28-Apr-20 13:57 36.581472 -116.873039 278 28164ft 316kts
28-Apr-20 13:58 36.594364 -116.981483 278 28158ft 316kts
28-Apr-20 13:59 36.607119 -117.089427 278 28124ft 317kts
28-Apr-20 14:00 36.619904 -117.198240 278 28118ft 316kts
28-Apr-20 14:01 36.632505 -117.306298 278 28118ft 316kts
28-Apr-20 14:02 36.645153 -117.415637 278 28120ft 316kts
28-Apr-20 14:03 36.657608 -117.524196 278 28126ft 316kts
28-Apr-20 14:04 36.669956 -117.632722 278 28136ft 316kts
28-Apr-20 14:05 36.682103 -117.740355 277 28165ft 315kts
28-Apr-20 14:06 36.694274 -117.849125 277 28190ft 315kts
28-Apr-20 14:07 36.706264 -117.957175 277 28192ft 316kts
28-Apr-20 14:08 36.718227 -118.065924 277 28192ft 316kts
28-Apr-20 14:09 36.730111 -118.174868 277 28192ft 316kts
28-Apr-20 14:10 36.741873 -118.283648 277 28192ft 316kts
28-Apr-20 14:11 36.753596 -118.393025 277 28192ft 316kts
28-Apr-20 14:12 36.765166 -118.501926 277 28192ft 316kts
28-Apr-20 14:13 36.776651 -118.610994 277 28190ft 316kts
28-Apr-20 14:14 36.787581 -118.717857 276 28187ft 316kts
28-Apr-20 14:15 36.798500 -118.826726 276 28186ft 316kts
28-Apr-20 14:16 36.809370 -118.936141 276 28153ft 317kts
28-Apr-20 14:17 36.820181 -119.046014 276 28134ft 317kts
28-Apr-20 14:18 36.830859 -119.155580 276 28129ft 317kts
28-Apr-20 14:19 36.841403 -119.264832 276 28109ft 317kts
28-Apr-20 14:20 36.851941 -119.375108 276 28100ft 317kts
28-Apr-20 14:21 36.862330 -119.484907 276 28100ft 317kts
28-Apr-20 14:22 36.872578 -119.594303 276 28100ft 317kts
28-Apr-20 14:23 36.883043 -119.707207 276 26955ft 340kts
28-Apr-20 14:24 36.894044 -119.827178 276 25472ft 350kts
28-Apr-20 14:25 36.887870 -119.947161 255 23965ft 348kts
28-Apr-20 14:26 36.864025 -120.064589 255 22458ft 345kts
28-Apr-20 14:27 36.840560 -120.178938 255 20946ft 336kts
28-Apr-20 14:28 36.817688 -120.289805 255 20094ft 315kts
28-Apr-20 14:29 36.796398 -120.392556 255 20073ft 298kts
28-Apr-20 14:30 36.774533 -120.497525 255 18601ft 319kts
28-Apr-20 14:31 36.752038 -120.604988 255 17114ft 323kts
28-Apr-20 14:32 36.729450 -120.712398 254 15607ft 315kts
28-Apr-20 14:33 36.713009 -120.818685 265 14091ft 311kts
28-Apr-20 14:34 36.706620 -120.926476 265 12650ft 307kts
28-Apr-20 14:35 36.700231 -121.031551 265 11444ft 302kts
28-Apr-20 14:36 36.693780 -121.136091 265 10238ft 300kts
28-Apr-20 14:37 36.687264 -121.240190 265 9033ft 299kts
28-Apr-20 14:38 36.680882 -121.340666 265 8104ft 273kts
28-Apr-20 14:39 36.675003 -121.432299 265 7349ft 262kts
28-Apr-20 14:40 36.669226 -121.521171 265 5983ft 247kts
28-Apr-20 14:41 36.663146 -121.601127 249 4869ft 217kts
28-Apr-20 14:42 36.625817 -121.657651 228 4158ft 205kts
28-Apr-20 14:43 36.590668 -121.707930 229 2914ft 174kts
28-Apr-20 14:44 36.562498 -121.752036 253 1916ft 148kts
28-Apr-20 14:45 36.571205 -121.797693 294 1013ft 131kts
28-Apr-20 14:46 36.584449 -121.836776 294 241ft 110kts
28-Apr-20 14:47 36.586992 -121.848362 291 184ft 0kts
28-Apr-20 14:48 36.586992 -121.848362 291 184ft 0kts
28-Apr-20 14:49 36.586992 -121.848362 291 184ft 0kts
28-Apr-20 14:50 36.586992 -121.848362 291 184ft 0kts
28-Apr-20 14:51 36.586992 -121.848362 291 184ft 0kts
28-Apr-20 14:52 36.586992 -121.848362 291 184ft 0kts
28-Apr-20 14:53 36.586992 -121.848362 291 184ft 0kts

Navigation Log

Ident Type
Flight plan parsing failed, navigation log unavailable